KBAB/BAB METAR and TAF weather

Enter ICAO airport designator
Station Type Date Time Source
KBAB METAR 2018/01/16 09:03 UTC NOAA

KBAB 160903Z AUTO 01005KT 1 1/4SM R15/2600FT -RA BR SCT002 SCT006 OVC015 10/10 A3019 RMK AO2 VIS 3/4V1 1/4 CIG 003V015 CIG 007 RWY33 SLP227 $


Station Type Date Time Source
KBAB Decoded METAR 2018/01/16 09:03 UTC NOAA

Marysville, Beale Air Force Base, CA, United States (KBAB) 39-08N 121-26W
Jan 16, 2018 - 04:03 AM EST / 2018.01.16 0903 UTC
Wind: from the N (010 degrees) at 6 MPH (5 KT):0
Visibility: 1 1/4 mile(s):0
Sky conditions: overcast
Weather: light rain; mist
Temperature: 50 F (10 C)
Dew Point: 50 F (10 C)
Relative Humidity: 100%
Pressure (altimeter): 30.19 in. Hg (1022 hPa)
ob: KBAB 160903Z AUTO 01005KT 1 1/4SM R15/2600FT -RA BR SCT002 SCT006 OVC015 10/10 A3019 RMK AO2 VIS 3/4V1 1/4 CIG 003V015 CIG 007 RWY33 SLP227
cycle: 9

Station Type Date Time Source
KBAB TAF 2018/01/13 03:06 UTC NOAA

TAF TAF KBAB 130303Z 1303/1409 34009KT 9999 FEW200 QNH3024INS
BECMG 1308/1309 VRB06KT 9999 SKC QNH3023INS
BECMG 1312/1313 VRB06KT 8000 BR SKC QNH3026INS
TEMPO 1313/1319 3200 BR
BECMG 1322/1323 VRB03KT 9999 NSW FEW250 QNH3019INS TX14/1322Z TN05/1315Z LAST NO
AMDS AFT 1306 NEXT 1612


Example: see airport list